METAR Data
IDs: Format: Raw Decoded Include TAF

Data at: 0235 UTC 01 Feb 2023

Region: TOP
KATL 010215Z 23009KT 10SM BKN008 OVC035 18/16 A3014 RMK AO2 T01780156

KBOS 010154Z 36008KT 10SM FEW150 M03/M14 A3028 RMK AO2 SLP252 T10331139

KBWI 010202Z 01005KT 6SM BR SCT014 OVC025 03/01 A3023 RMK AO2 DZE02 P0000 T00280006

KCLE 010151Z 28006KT 10SM BKN150 BKN250 M08/M14 A3028 RMK AO2 SLP286 T10781139

KCLT 010152Z 00000KT 10SM OVC017 14/13 A3010 RMK RAB0055E06 SLP190 P0000 T01440128

KCVG 010231Z 02007KT 10SM -SN OVC039 M04/M10 A3030 RMK AO2 SNB31 PCPN VRY LGT P0000 T10441100

KDCA 010152Z 02007KT 10SM FEW010 BKN022 OVC029 03/01 A3024 RMK AO2 SLP241 T00330006

KDEN 010153Z 15010KT 10SM CLR M12/M19 A3002 RMK AO2 SLP253 T11171189

KDFW 010153Z 35008KT 10SM OVC015 M02/M05 A3036 RMK AO2 SLP286 T10221050

KDTW 010153Z 20006KT 10SM BKN035 BKN220 M10/M14 A3031 RMK AO2 SLP278 T11001144

KEWR 010151Z 36011KT 10SM FEW035 OVC060 02/M09 A3023 RMK AO2 SLP235 T00221089

KFLL 010153Z 14006KT 10SM CLR 24/20 A3018 RMK AO2 SLP220 T02440200

KIAD 010222Z 02005KT 3SM -DZ BKN007 BKN011 OVC018 02/01 A3022 RMK AO2 P0000 T00220006

KIAH 010153Z 36015G21KT 10SM OVC009 03/02 A3027 RMK AO2 SLP250 T00280017

KJFK 010151Z 04009KT 10SM BKN055 02/M06 A3024 RMK AO2 SLP238 T00171061

KLAS 010156Z 08004KT 10SM CLR 07/M13 A3020 RMK AO2 SLP236 T00671133

KLAX 010153Z 21004KT 10SM CLR 15/00 A3005 RMK AO2 SLP177 T01500000 $

KLGA 010151Z 03008KT 10SM FEW035 BKN060 02/M08 A3024 RMK AO2 SLP238 T00171078 $

KMCO 010153Z 13007KT 10SM FEW040 23/19 A3017 RMK AO2 SLP214 T02280189

KMDW 010153Z 24007KT 10SM CLR M14/M22 A3037 RMK AO2 SLP310 T11391217

KMEM 010224Z 35012KT 10SM -FZDZ OVC008 M03/M04 A3034 RMK AO2 FZRAE24FZDZB24PLE24 CIG 006V013 P0000 I1000 T10331044 $

KMIA 010153Z 12005KT 10SM CLR 24/20 A3019 RMK AO2 SLP224 T02440200 $

KMSP 010153Z 21005KT 10SM SCT120 M13/M20 A3019 RMK AO2 SLP246 T11331200

KORD 010151Z 24005KT 10SM CLR M14/M21 A3035 RMK AO2 SLP295 T11441211

KPDX 010153Z 05003KT 10SM SCT150 BKN250 04/M04 A3021 RMK AO2 SLP229 T00391039

KPHL 010154Z 33006KT 10SM BKN034 OVC045 02/M03 A3024 RMK AO2 SLP240 T00221033 $

KPHX 010151Z 25009KT 10SM SCT140 SCT200 14/06 A2999 RMK AO2 SLP150 T01440056

KPIT 010151Z 27003KT 10SM OVC130 M06/M11 A3021 RMK AO2 SLP257 T10561106

KSAN 010151Z 35003KT 10SM FEW030 13/04 A3007 RMK AO2 SLP182 T01330044 $

KSEA 010153Z 00000KT 10SM SCT120 BKN250 03/M04 A3017 RMK AO2 SLP226 T00281039

KSFO 010156Z 29010KT 10SM FEW200 12/M04 A3016 RMK AO2 SLP212 T01171044

KSLC 010154Z 34004KT 10SM BKN090 M07/M12 A3036 RMK AO2 SLP331 T10721122

KSTL 010151Z 36003KT 10SM FEW130 BKN240 M06/M16 A3038 RMK AO2 SLP307 T10611156 $

KTPA 010153Z 36003KT 10SM CLR 21/18 A3018 RMK AO2 SLP218 T02110183